PWSweather.com
Personal Weather Stations
Station Observations
KNCCHINA3
Red Tractor Trail, China Grove, NC 28023

Red Tractor TrailChina Grove, NC 28023

Lat: 35.59751, Lon: -80.60201

Elevation: 800

Station Type: Oregon Scientific WMR 968

http://www.joesweathergarage.com

High Low Average
Temperature 75.0°F23.9°C 51.3°F10.7°C 60.2°F15.7°C
Dew Point 60.9°F16.1°C 48.4°F9.1°C 54.0°F12.2°C
Winds 16.6 mph 26.7 kmh Calm Calm 3.0 mph E4.8 kmh E
Wind Gusts 19.2 mph30.9 kmh -- 5.0 mph8.0 kmh
Humidity 98% 46% 83%
Pressure 29.91 in1012.9 mb 29.77 in1008.1 mb -
Precipitation 0.25 in6.4 mm - -
Hour Temp Dew Point Humidity Winds Wind Gusts Pressure Precip Precip Rate Daily Precip Total
12:01 AM 54.9°F12.7°C 51.3°F10.7°C 88% Calm Calm -- 29.85 in1010.8 mb 0.00 in0.0 mm 0.00 in0.0 mm 0.00 in0.0 mm
12:06 AM 54.4°F12.4°C 51.4°F10.8°C 90% Calm Calm -- 29.85 in1010.8 mb 0.00 in0.0 mm 0.00 in0.0 mm 0.00 in0.0 mm
12:11 AM 54.2°F12.3°C 51.2°F10.7°C 90% Calm Calm -- 29.85 in1010.8 mb 0.00 in0.0 mm 0.00 in0.0 mm 0.00 in0.0 mm
12:16 AM 54.0°F12.2°C 51.0°F10.6°C 90% Calm Calm -- 29.85 in1010.8 mb 0.00 in0.0 mm 0.00 in0.0 mm 0.00 in0.0 mm
12:21 AM 53.9°F12.2°C 51.5°F10.8°C 92% Calm Calm -- 29.85 in1010.8 mb 0.00 in0.0 mm 0.00 in0.0 mm 0.00 in0.0 mm
12:26 AM 53.5°F11.9°C 51.4°F10.8°C 93% Calm Calm -- 29.85 in1010.8 mb 0.00 in0.0 mm 0.00 in0.0 mm 0.00 in0.0 mm
12:31 AM 53.1°F11.7°C 51.3°F10.7°C 94% Calm Calm -- 29.85 in1010.8 mb 0.00 in0.0 mm 0.00 in0.0 mm 0.00 in0.0 mm
12:36 AM 53.3°F11.8°C 51.5°F10.8°C 94% Calm Calm -- 29.85 in1010.8 mb 0.00 in0.0 mm 0.00 in0.0 mm 0.00 in0.0 mm
12:42 AM 53.7°F12.1°C 51.9°F11.1°C 94% Calm Calm -- 29.85 in1010.8 mb 0.00 in0.0 mm 0.00 in0.0 mm 0.00 in0.0 mm
12:47 AM 53.5°F11.9°C 51.7°F10.9°C 94% Calm Calm -- 29.85 in1010.8 mb 0.00 in0.0 mm 0.00 in0.0 mm 0.00 in0.0 mm
12:53 AM 53.7°F12.1°C 51.9°F11.1°C 94% Calm Calm -- 29.85 in1010.8 mb 0.00 in0.0 mm 0.00 in0.0 mm 0.00 in0.0 mm
12:58 AM 54.0°F12.2°C 52.2°F11.2°C 94% Calm Calm -- 29.85 in1010.8 mb 0.00 in0.0 mm 0.00 in0.0 mm 0.00 in0.0 mm
01:03 AM 54.2°F12.3°C 52.4°F11.3°C 94% Calm Calm -- 29.85 in1010.8 mb 0.00 in0.0 mm 0.00 in0.0 mm 0.00 in0.0 mm
01:08 AM 54.2°F12.3°C 52.4°F11.3°C 94% Calm Calm -- 29.85 in1010.8 mb 0.00 in0.0 mm 0.00 in0.0 mm 0.00 in0.0 mm
01:13 AM 54.4°F12.4°C 52.6°F11.4°C 94% Calm Calm -- 29.85 in1010.8 mb 0.00 in0.0 mm 0.00 in0.0 mm 0.00 in0.0 mm
01:18 AM 54.4°F12.4°C 52.6°F11.4°C 94% Calm Calm -- 29.85 in1010.8 mb 0.00 in0.0 mm 0.00 in0.0 mm 0.00 in0.0 mm
01:23 AM 54.4°F12.4°C 52.6°F11.4°C 94% Calm Calm -- 29.85 in1010.8 mb 0.00 in0.0 mm 0.00 in0.0 mm 0.00 in0.0 mm
01:28 AM 54.6°F12.6°C 52.8°F11.6°C 94% Calm Calm -- 29.85 in1010.8 mb 0.00 in0.0 mm 0.00 in0.0 mm 0.00 in0.0 mm
01:33 AM 54.6°F12.6°C 52.8°F11.6°C 94% Calm Calm -- 29.85 in1010.8 mb 0.00 in0.0 mm 0.00 in0.0 mm 0.00 in0.0 mm
01:38 AM 54.4°F12.4°C 52.6°F11.4°C 94% Calm Calm -- 29.85 in1010.8 mb 0.00 in0.0 mm 0.00 in0.0 mm 0.00 in0.0 mm
01:43 AM 54.2°F12.3°C 52.4°F11.3°C 94% Calm Calm -- 29.85 in1010.8 mb 0.00 in0.0 mm 0.00 in0.0 mm 0.00 in0.0 mm
01:48 AM 54.0°F12.2°C 52.2°F11.2°C 94% Calm Calm -- 29.85 in1010.8 mb 0.00 in0.0 mm 0.00 in0.0 mm 0.00 in0.0 mm
01:54 AM 53.9°F12.2°C 52.1°F11.2°C 94% Calm Calm -- 29.85 in1010.8 mb 0.00 in0.0 mm 0.00 in0.0 mm 0.00 in0.0 mm
01:59 AM 53.5°F11.9°C 51.7°F10.9°C 94% Calm Calm -- 29.85 in1010.8 mb 0.00 in0.0 mm 0.00 in0.0 mm 0.00 in0.0 mm
02:04 AM 53.5°F11.9°C 51.7°F10.9°C 94% 4.0 mph NE6.4 kmh NE 4.4 mph7.1 kmh 29.85 in1010.8 mb 0.00 in0.0 mm 0.00 in0.0 mm 0.00 in0.0 mm
02:09 AM 53.5°F11.9°C 52.0°F11.1°C 95% 1.8 mph NE2.9 kmh NE 4.4 mph7.1 kmh 29.85 in1010.8 mb 0.00 in0.0 mm 0.00 in0.0 mm 0.00 in0.0 mm
02:15 AM 53.3°F11.8°C 51.8°F11.0°C 95% Calm Calm 2.6 mph4.2 kmh 29.85 in1010.8 mb 0.00 in0.0 mm 0.00 in0.0 mm 0.00 in0.0 mm
02:20 AM 53.3°F11.8°C 51.8°F11.0°C 95% Calm Calm -- 29.85 in1010.8 mb 0.00 in0.0 mm 0.00 in0.0 mm 0.00 in0.0 mm
02:27 AM 53.1°F11.7°C 51.9°F11.1°C 96% Calm Calm -- 29.85 in1010.8 mb 0.00 in0.0 mm 0.00 in0.0 mm 0.00 in0.0 mm
02:32 AM 52.8°F11.6°C 51.3°F10.7°C 95% Calm Calm -- 29.85 in1010.8 mb 0.00 in0.0 mm 0.00 in0.0 mm 0.00 in0.0 mm
02:38 AM 52.4°F11.3°C 51.2°F10.7°C 96% Calm Calm -- 29.85 in1010.8 mb 0.00 in0.0 mm 0.00 in0.0 mm 0.00 in0.0 mm
02:43 AM 52.1°F11.2°C 50.9°F10.5°C 96% Calm Calm -- 29.85 in1010.8 mb 0.00 in0.0 mm 0.00 in0.0 mm 0.00 in0.0 mm
02:48 AM 51.9°F11.1°C 50.7°F10.4°C 96% Calm Calm -- 29.85 in1010.8 mb 0.00 in0.0 mm 0.00 in0.0 mm 0.00 in0.0 mm
02:53 AM 51.7°F10.9°C 51.0°F10.6°C 98% Calm Calm -- 29.85 in1010.8 mb 0.00 in0.0 mm 0.00 in0.0 mm 0.00 in0.0 mm
02:58 AM 51.3°F10.7°C 50.6°F10.3°C 98% Calm Calm -- 29.85 in1010.8 mb 0.00 in0.0 mm 0.00 in0.0 mm 0.00 in0.0 mm
03:03 AM 51.3°F10.7°C 50.6°F10.3°C 98% Calm Calm -- 29.85 in1010.8 mb 0.00 in0.0 mm 0.00 in0.0 mm 0.00 in0.0 mm
03:08 AM 51.3°F10.7°C 50.6°F10.3°C 98% Calm Calm -- 29.85 in1010.8 mb 0.00 in0.0 mm 0.00 in0.0 mm 0.00 in0.0 mm
03:13 AM 51.5°F10.8°C 50.8°F10.4°C 98% Calm Calm -- 29.85 in1010.8 mb 0.00 in0.0 mm 0.00 in0.0 mm 0.00 in0.0 mm
03:18 AM 51.5°F10.8°C 50.8°F10.4°C 98% Calm Calm -- 29.85 in1010.8 mb 0.00 in0.0 mm 0.00 in0.0 mm 0.00 in0.0 mm
03:23 AM 51.9°F11.1°C 51.2°F10.7°C 98% Calm Calm -- 29.85 in1010.8 mb 0.00 in0.0 mm 0.00 in0.0 mm 0.00 in0.0 mm
03:30 AM 52.2°F11.2°C 51.5°F10.8°C 98% 2.4 mph NE3.9 kmh NE 4.0 mph6.4 kmh 29.85 in1010.8 mb 0.00 in0.0 mm 0.00 in0.0 mm 0.00 in0.0 mm
03:35 AM 52.6°F11.4°C 51.9°F11.1°C 98% 4.7 mph N7.6 kmh N 5.4 mph8.7 kmh 29.85 in1010.8 mb 0.00 in0.0 mm 0.00 in0.0 mm 0.00 in0.0 mm
03:40 AM 53.1°F11.7°C 52.4°F11.3°C 98% 4.3 mph NNE6.9 kmh NNE 5.8 mph9.3 kmh 29.85 in1010.8 mb 0.00 in0.0 mm 0.00 in0.0 mm 0.00 in0.0 mm
03:45 AM 53.5°F11.9°C 52.8°F11.6°C 98% 5.8 mph NNE9.3 kmh NNE 6.8 mph10.9 kmh 29.85 in1010.8 mb 0.00 in0.0 mm 0.00 in0.0 mm 0.00 in0.0 mm
03:50 AM 53.9°F12.2°C 53.2°F11.8°C 98% 4.8 mph N7.7 kmh N 7.2 mph11.6 kmh 29.85 in1010.8 mb 0.00 in0.0 mm 0.00 in0.0 mm 0.00 in0.0 mm
03:55 AM 54.2°F12.3°C 53.5°F11.9°C 98% 5.7 mph N9.2 kmh N 8.6 mph13.8 kmh 29.85 in1010.8 mb 0.00 in0.0 mm 0.00 in0.0 mm 0.00 in0.0 mm
04:00 AM 54.4°F12.4°C 53.7°F12.1°C 98% 3.2 mph NE5.1 kmh NE 8.6 mph13.8 kmh 29.85 in1010.8 mb 0.00 in0.0 mm 0.00 in0.0 mm 0.00 in0.0 mm
04:05 AM 54.6°F12.6°C 53.6°F12.0°C 97% 3.5 mph N5.6 kmh N 6.8 mph10.9 kmh 29.85 in1010.8 mb 0.00 in0.0 mm 0.00 in0.0 mm 0.00 in0.0 mm
04:10 AM 54.8°F12.7°C 53.8°F12.1°C 97% 2.2 mph 3.5 kmh 5.0 mph8.0 kmh 29.85 in1010.8 mb 0.00 in0.0 mm 0.00 in0.0 mm 0.00 in0.0 mm
04:15 AM 54.8°F12.7°C 53.5°F11.9°C 96% Calm Calm 2.2 mph3.5 kmh 29.85 in1010.8 mb 0.00 in0.0 mm 0.00 in0.0 mm 0.00 in0.0 mm
04:21 AM 54.9°F12.7°C 53.6°F12.0°C 96% 2.8 mph ENE4.5 kmh ENE 4.4 mph7.1 kmh 29.88 in1011.9 mb 0.00 in0.0 mm 0.00 in0.0 mm 0.00 in0.0 mm
04:26 AM 54.9°F12.7°C 53.3°F11.8°C 95% 2.3 mph 3.7 kmh 4.4 mph7.1 kmh 29.88 in1011.9 mb 0.00 in0.0 mm 0.00 in0.0 mm 0.00 in0.0 mm
04:31 AM 54.8°F12.7°C 53.3°F11.8°C 95% Calm Calm 3.2 mph5.1 kmh 29.88 in1011.9 mb 0.00 in0.0 mm 0.00 in0.0 mm 0.00 in0.0 mm
04:36 AM 54.8°F12.7°C 53.3°F11.8°C 95% Calm Calm 3.2 mph5.1 kmh 29.88 in1011.9 mb 0.00 in0.0 mm 0.00 in0.0 mm 0.00 in0.0 mm
04:42 AM 54.8°F12.7°C 53.3°F11.8°C 95% Calm Calm -- 29.88 in1011.9 mb 0.00 in0.0 mm 0.00 in0.0 mm 0.00 in0.0 mm
04:47 AM 54.6°F12.6°C 53.1°F11.7°C 95% Calm Calm -- 29.88 in1011.9 mb 0.00 in0.0 mm 0.00 in0.0 mm 0.00 in0.0 mm
04:52 AM 54.6°F12.6°C 53.1°F11.7°C 95% Calm Calm -- 29.85 in1010.8 mb 0.00 in0.0 mm 0.00 in0.0 mm 0.00 in0.0 mm
04:57 AM 54.6°F12.6°C 53.1°F11.7°C 95% Calm Calm -- 29.85 in1010.8 mb 0.00 in0.0 mm 0.00 in0.0 mm 0.00 in0.0 mm
05:03 AM 54.6°F12.6°C 53.1°F11.7°C 95% Calm Calm -- 29.85 in1010.8 mb 0.00 in0.0 mm 0.00 in0.0 mm 0.00 in0.0 mm
05:08 AM 54.6°F12.6°C 53.1°F11.7°C 95% 2.0 mph NNE3.2 kmh NNE 2.2 mph3.5 kmh 29.85 in1010.8 mb 0.00 in0.0 mm 0.00 in0.0 mm 0.00 in0.0 mm
05:13 AM 54.6°F12.6°C 53.1°F11.7°C 95% Calm Calm 2.2 mph3.5 kmh 29.85 in1010.8 mb 0.00 in0.0 mm 0.00 in0.0 mm 0.00 in0.0 mm
05:18 AM 54.6°F12.6°C 53.1°F11.7°C 95% Calm Calm -- 29.85 in1010.8 mb 0.00 in0.0 mm 0.00 in0.0 mm 0.00 in0.0 mm
05:23 AM 54.4°F12.4°C 53.4°F11.9°C 97% Calm Calm -- 29.85 in1010.8 mb 0.00 in0.0 mm 0.00 in0.0 mm 0.00 in0.0 mm
05:28 AM 54.4°F12.4°C 53.1°F11.7°C 96% Calm Calm -- 29.85 in1010.8 mb 0.00 in0.0 mm 0.00 in0.0 mm 0.00 in0.0 mm
05:33 AM 54.4°F12.4°C 53.1°F11.7°C 96% Calm Calm -- 29.85 in1010.8 mb 0.00 in0.0 mm 0.00 in0.0 mm 0.00 in0.0 mm
05:38 AM 54.2°F12.3°C 52.9°F11.6°C 96% Calm Calm -- 29.85 in1010.8 mb 0.00 in0.0 mm 0.00 in0.0 mm 0.00 in0.0 mm
05:43 AM 54.2°F12.3°C 53.2°F11.8°C 97% Calm Calm -- 29.85 in1010.8 mb 0.00 in0.0 mm 0.00 in0.0 mm 0.00 in0.0 mm
05:48 AM 54.0°F12.2°C 53.0°F11.7°C 97% Calm Calm -- 29.85 in1010.8 mb 0.00 in0.0 mm 0.00 in0.0 mm 0.00 in0.0 mm
05:54 AM 53.9°F12.2°C 52.6°F11.4°C 96% Calm Calm -- 29.85 in1010.8 mb 0.00 in0.0 mm 0.00 in0.0 mm 0.00 in0.0 mm
05:59 AM 54.0°F12.2°C 53.0°F11.7°C 97% Calm Calm -- 29.85 in1010.8 mb 0.00 in0.0 mm 0.00 in0.0 mm 0.00 in0.0 mm
06:06 AM 53.9°F12.2°C 52.9°F11.6°C 97% 2.8 mph NNE4.5 kmh NNE 4.0 mph6.4 kmh 29.85 in1010.8 mb 0.00 in0.0 mm 0.00 in0.0 mm 0.00 in0.0 mm
06:11 AM 54.0°F12.2°C 53.0°F11.7°C 97% 2.2 mph NNE3.5 kmh NNE 4.0 mph6.4 kmh 29.85 in1010.8 mb 0.00 in0.0 mm 0.00 in0.0 mm 0.00 in0.0 mm
06:16 AM 54.0°F12.2°C 53.0°F11.7°C 97% 1.9 mph NNE3.1 kmh NNE 3.2 mph5.1 kmh 29.85 in1010.8 mb 0.00 in0.0 mm 0.00 in0.0 mm 0.00 in0.0 mm
06:21 AM 53.9°F12.2°C 52.6°F11.4°C 96% Calm Calm 3.2 mph5.1 kmh 29.85 in1010.8 mb 0.00 in0.0 mm 0.00 in0.0 mm 0.00 in0.0 mm
06:26 AM 53.9°F12.2°C 52.9°F11.6°C 97% Calm Calm -- 29.85 in1010.8 mb 0.00 in0.0 mm 0.00 in0.0 mm 0.00 in0.0 mm
06:31 AM 53.5°F11.9°C 52.2°F11.2°C 96% Calm Calm -- 29.85 in1010.8 mb 0.00 in0.0 mm 0.00 in0.0 mm 0.00 in0.0 mm
06:37 AM 53.3°F11.8°C 52.3°F11.3°C 97% Calm Calm -- 29.85 in1010.8 mb 0.00 in0.0 mm 0.00 in0.0 mm 0.00 in0.0 mm
06:42 AM 53.0°F11.7°C 52.0°F11.1°C 97% Calm Calm -- 29.85 in1010.8 mb 0.00 in0.0 mm 0.00 in0.0 mm 0.00 in0.0 mm
06:48 AM 53.0°F11.7°C 52.0°F11.1°C 97% Calm Calm -- 29.85 in1010.8 mb 0.00 in0.0 mm 0.00 in0.0 mm 0.00 in0.0 mm
06:53 AM 53.0°F11.7°C 52.3°F11.3°C 98% Calm Calm -- 29.83 in1010.2 mb 0.00 in0.0 mm 0.00 in0.0 mm 0.00 in0.0 mm
06:58 AM 52.8°F11.6°C 52.1°F11.2°C 98% Calm Calm -- 29.83 in1010.2 mb 0.00 in0.0 mm 0.00 in0.0 mm 0.00 in0.0 mm
07:03 AM 52.8°F11.6°C 52.1°F11.2°C 98% Calm Calm -- 29.83 in1010.2 mb 0.00 in0.0 mm 0.00 in0.0 mm 0.00 in0.0 mm
07:09 AM 52.8°F11.6°C 52.1°F11.2°C 98% Calm Calm -- 29.85 in1010.8 mb 0.00 in0.0 mm 0.00 in0.0 mm 0.00 in0.0 mm
07:14 AM 52.8°F11.6°C 52.1°F11.2°C 98% Calm Calm -- 29.85 in1010.8 mb 0.00 in0.0 mm 0.00 in0.0 mm 0.00 in0.0 mm
07:19 AM 53.0°F11.7°C 52.3°F11.3°C 98% Calm Calm -- 29.85 in1010.8 mb 0.00 in0.0 mm 0.00 in0.0 mm 0.00 in0.0 mm
07:24 AM 53.1°F11.7°C 52.4°F11.3°C 98% 4.1 mph NE6.6 kmh NE 5.4 mph8.7 kmh 29.85 in1010.8 mb 0.00 in0.0 mm 0.00 in0.0 mm 0.00 in0.0 mm
07:29 AM 53.5°F11.9°C 52.8°F11.6°C 98% 2.8 mph NNE4.5 kmh NNE 5.4 mph8.7 kmh 29.85 in1010.8 mb 0.00 in0.0 mm 0.00 in0.0 mm 0.00 in0.0 mm
07:34 AM 53.9°F12.2°C 53.2°F11.8°C 98% 3.0 mph N4.8 kmh N 5.4 mph8.7 kmh 29.85 in1010.8 mb 0.00 in0.0 mm 0.00 in0.0 mm 0.00 in0.0 mm
07:39 AM 54.4°F12.4°C 53.7°F12.1°C 98% 3.1 mph ENE5.0 kmh ENE 6.2 mph10.0 kmh 29.88 in1011.9 mb 0.00 in0.0 mm 0.00 in0.0 mm 0.00 in0.0 mm
07:44 AM 54.8°F12.7°C 54.1°F12.3°C 98% 5.4 mph NNE8.7 kmh NNE 7.2 mph11.6 kmh 29.88 in1011.9 mb 0.00 in0.0 mm 0.00 in0.0 mm 0.00 in0.0 mm
07:50 AM 55.5°F13.1°C 54.2°F12.3°C 96% 4.5 mph NE7.2 kmh NE 7.6 mph12.2 kmh 29.88 in1011.9 mb 0.00 in0.0 mm 0.00 in0.0 mm 0.00 in0.0 mm
07:55 AM 55.8°F13.2°C 54.5°F12.5°C 96% 4.3 mph ENE6.9 kmh ENE 7.6 mph12.2 kmh 29.88 in1011.9 mb 0.00 in0.0 mm 0.00 in0.0 mm 0.00 in0.0 mm
08:01 AM 56.2°F13.4°C 54.6°F12.6°C 95% 4.2 mph NE6.8 kmh NE 6.8 mph10.9 kmh 29.88 in1011.9 mb 0.00 in0.0 mm 0.00 in0.0 mm 0.00 in0.0 mm
08:06 AM 56.6°F13.7°C 54.7°F12.6°C 94% 3.1 mph ENE5.0 kmh ENE 5.8 mph9.3 kmh 29.88 in1011.9 mb 0.00 in0.0 mm 0.00 in0.0 mm 0.00 in0.0 mm
08:11 AM 57.1°F13.9°C 54.6°F12.6°C 92% 3.7 mph NE6.0 kmh NE 7.6 mph12.2 kmh 29.88 in1011.9 mb 0.00 in0.0 mm 0.00 in0.0 mm 0.00 in0.0 mm
08:16 AM 57.8°F14.3°C 54.4°F12.4°C 89% 3.7 mph ENE6.0 kmh ENE 7.6 mph12.2 kmh 29.88 in1011.9 mb 0.00 in0.0 mm 0.00 in0.0 mm 0.00 in0.0 mm
08:22 AM 58.7°F14.8°C 54.4°F12.4°C 86% 3.2 mph NNE5.1 kmh NNE 8.0 mph12.9 kmh 29.88 in1011.9 mb 0.00 in0.0 mm 0.00 in0.0 mm 0.00 in0.0 mm
08:28 AM 59.1°F15.1°C 53.5°F11.9°C 82% 6.6 mph NE10.6 kmh NE 8.0 mph12.9 kmh 29.88 in1011.9 mb 0.00 in0.0 mm 0.00 in0.0 mm 0.00 in0.0 mm
08:34 AM 58.9°F14.9°C 52.0°F11.1°C 78% 6.3 mph NNE10.1 kmh NNE 14.8 mph23.8 kmh 29.88 in1011.9 mb 0.00 in0.0 mm 0.00 in0.0 mm 0.00 in0.0 mm
08:39 AM 59.6°F15.3°C 53.0°F11.7°C 79% 5.6 mph NE9.0 kmh NE 14.8 mph23.8 kmh 29.88 in1011.9 mb 0.00 in0.0 mm 0.00 in0.0 mm 0.00 in0.0 mm
08:44 AM 59.9°F15.5°C 52.0°F11.1°C 75% 7.7 mph ENE12.4 kmh ENE 8.6 mph13.8 kmh 29.88 in1011.9 mb 0.00 in0.0 mm 0.00 in0.0 mm 0.00 in0.0 mm
08:49 AM 59.9°F15.5°C 50.6°F10.3°C 71% 7.1 mph ENE11.4 kmh ENE 15.2 mph24.5 kmh 29.88 in1011.9 mb 0.00 in0.0 mm 0.00 in0.0 mm 0.00 in0.0 mm
08:55 AM 60.2°F15.7°C 50.9°F10.5°C 71% 10.6 mph NNE17.1 kmh NNE 15.2 mph24.5 kmh 29.88 in1011.9 mb 0.00 in0.0 mm 0.00 in0.0 mm 0.00 in0.0 mm
09:00 AM 61.0°F16.1°C 50.9°F10.5°C 69% 9.8 mph 15.8 kmh 11.2 mph18.0 kmh 29.88 in1011.9 mb 0.00 in0.0 mm 0.00 in0.0 mm 0.00 in0.0 mm
09:05 AM 61.1°F16.2°C 51.0°F10.6°C 69% 7.1 mph ENE11.4 kmh ENE 9.8 mph15.8 kmh 29.88 in1011.9 mb 0.00 in0.0 mm 0.00 in0.0 mm 0.00 in0.0 mm
09:10 AM 60.6°F15.9°C 49.3°F9.6°C 66% 7.2 mph NNE11.6 kmh NNE 11.6 mph18.7 kmh 29.88 in1011.9 mb 0.00 in0.0 mm 0.00 in0.0 mm 0.00 in0.0 mm
09:16 AM 61.1°F16.2°C 50.2°F10.1°C 67% 11.2 mph NNE18.0 kmh NNE 11.6 mph18.7 kmh 29.88 in1011.9 mb 0.00 in0.0 mm 0.00 in0.0 mm 0.00 in0.0 mm
09:21 AM 61.5°F16.4°C 50.6°F10.3°C 67% 6.2 mph NNE10.0 kmh NNE 11.2 mph18.0 kmh 29.88 in1011.9 mb 0.00 in0.0 mm 0.00 in0.0 mm 0.00 in0.0 mm
09:26 AM 61.7°F16.5°C 49.1°F9.5°C 63% 8.0 mph N12.9 kmh N 11.2 mph18.0 kmh 29.88 in1011.9 mb 0.00 in0.0 mm 0.00 in0.0 mm 0.00 in0.0 mm
09:31 AM 61.9°F16.6°C 48.4°F9.1°C 61% 16.6 mph NNE26.7 kmh NNE 19.2 mph30.9 kmh 29.88 in1011.9 mb 0.00 in0.0 mm 0.00 in0.0 mm 0.00 in0.0 mm
09:38 AM 61.9°F16.6°C 48.4°F9.1°C 61% 10.8 mph NNE17.4 kmh NNE 19.2 mph30.9 kmh 29.88 in1011.9 mb 0.00 in0.0 mm 0.00 in0.0 mm 0.00 in0.0 mm
09:43 AM 62.0°F16.7°C 49.4°F9.7°C 63% 2.2 mph NE3.5 kmh NE 10.8 mph17.4 kmh 29.88 in1011.9 mb 0.00 in0.0 mm 0.00 in0.0 mm 0.00 in0.0 mm
09:49 AM 62.4°F16.9°C 48.9°F9.4°C 61% 3.2 mph NNE5.1 kmh NNE 10.8 mph17.4 kmh 29.88 in1011.9 mb 0.00 in0.0 mm 0.00 in0.0 mm 0.00 in0.0 mm
09:54 AM 63.5°F17.5°C 50.8°F10.4°C 63% 5.2 mph NE8.4 kmh NE 8.6 mph13.8 kmh 29.88 in1011.9 mb 0.00 in0.0 mm 0.00 in0.0 mm 0.00 in0.0 mm
09:59 AM 63.7°F17.6°C 50.6°F10.3°C 62% 4.4 mph NE7.1 kmh NE 5.8 mph9.3 kmh 29.88 in1011.9 mb 0.00 in0.0 mm 0.00 in0.0 mm 0.00 in0.0 mm
10:04 AM 64.0°F17.8°C 50.4°F10.2°C 61% 5.8 mph NE9.3 kmh NE 5.8 mph9.3 kmh 29.88 in1011.9 mb 0.00 in0.0 mm 0.00 in0.0 mm 0.00 in0.0 mm
10:09 AM 64.4°F18.0°C 51.2°F10.7°C 62% 6.2 mph NNE10.0 kmh NNE 7.6 mph12.2 kmh 29.88 in1011.9 mb 0.00 in0.0 mm 0.00 in0.0 mm 0.00 in0.0 mm
10:14 AM 64.0°F17.8°C 50.0°F10.0°C 60% 6.2 mph NNE10.0 kmh NNE 7.6 mph12.2 kmh 29.88 in1011.9 mb 0.00 in0.0 mm 0.00 in0.0 mm 0.00 in0.0 mm
10:19 AM 63.8°F17.7°C 50.2°F10.1°C 61% 5.9 mph NNE9.5 kmh NNE 6.8 mph10.9 kmh 29.88 in1011.9 mb 0.00 in0.0 mm 0.00 in0.0 mm 0.00 in0.0 mm
10:24 AM 64.0°F17.8°C 50.4°F10.2°C 61% 4.9 mph NE7.9 kmh NE 8.0 mph12.9 kmh 29.88 in1011.9 mb 0.00 in0.0 mm 0.00 in0.0 mm 0.00 in0.0 mm
10:29 AM 64.7°F18.2°C 51.5°F10.8°C 62% 4.0 mph 6.4 kmh 8.0 mph12.9 kmh 29.88 in1011.9 mb 0.00 in0.0 mm 0.00 in0.0 mm 0.00 in0.0 mm
10:34 AM 65.1°F18.4°C 51.0°F10.6°C 60% 7.4 mph NNE11.9 kmh NNE 8.0 mph12.9 kmh 29.88 in1011.9 mb 0.00 in0.0 mm 0.00 in0.0 mm 0.00 in0.0 mm
10:39 AM 64.9°F18.3°C 50.8°F10.4°C 60% 2.6 mph NNE4.2 kmh NNE 7.6 mph12.2 kmh 29.88 in1011.9 mb 0.00 in0.0 mm 0.00 in0.0 mm 0.00 in0.0 mm
10:44 AM 64.6°F18.1°C 50.5°F10.3°C 60% 3.8 mph ENE6.1 kmh ENE 7.2 mph11.6 kmh 29.88 in1011.9 mb 0.00 in0.0 mm 0.00 in0.0 mm 0.00 in0.0 mm
10:50 AM 64.6°F18.1°C 49.6°F9.8°C 58% 8.8 mph E14.2 kmh E 10.8 mph17.4 kmh 29.88 in1011.9 mb 0.00 in0.0 mm 0.00 in0.0 mm 0.00 in0.0 mm
10:55 AM 65.3°F18.5°C 51.2°F10.7°C 60% 5.0 mph ENE8.0 kmh ENE 10.8 mph17.4 kmh 29.88 in1011.9 mb 0.00 in0.0 mm 0.00 in0.0 mm 0.00 in0.0 mm
11:00 AM 65.3°F18.5°C 51.2°F10.7°C 60% 3.2 mph ENE5.1 kmh ENE 5.0 mph8.0 kmh 29.88 in1011.9 mb 0.00 in0.0 mm 0.00 in0.0 mm 0.00 in0.0 mm
11:05 AM 64.9°F18.3°C 49.9°F9.9°C 58% 6.7 mph NE10.8 kmh NE 10.8 mph17.4 kmh 29.91 in1012.9 mb 0.00 in0.0 mm 0.00 in0.0 mm 0.00 in0.0 mm
11:10 AM 64.7°F18.2°C 50.2°F10.1°C 59% 7.2 mph NNE11.6 kmh NNE 10.8 mph17.4 kmh 29.91 in1012.9 mb 0.00 in0.0 mm 0.00 in0.0 mm 0.00 in0.0 mm
11:15 AM 65.1°F18.4°C 50.5°F10.3°C 59% 6.2 mph NNE10.0 kmh NNE 9.8 mph15.8 kmh 29.91 in1012.9 mb 0.00 in0.0 mm 0.00 in0.0 mm 0.00 in0.0 mm
11:21 AM 65.8°F18.8°C 51.6°F10.9°C 60% 5.9 mph NNE9.5 kmh NNE 7.6 mph12.2 kmh 29.91 in1012.9 mb 0.00 in0.0 mm 0.00 in0.0 mm 0.00 in0.0 mm
11:26 AM 67.1°F19.5°C 52.4°F11.3°C 59% 5.8 mph ENE9.3 kmh ENE 7.6 mph12.2 kmh 29.91 in1012.9 mb 0.00 in0.0 mm 0.00 in0.0 mm 0.00 in0.0 mm
11:32 AM 69.4°F20.8°C 52.6°F11.4°C 55% 6.1 mph NNE9.8 kmh NNE 10.8 mph17.4 kmh 29.91 in1012.9 mb 0.00 in0.0 mm 0.00 in0.0 mm 0.00 in0.0 mm
11:37 AM 71.2°F21.8°C 54.3°F12.4°C 55% 3.5 mph ESE5.6 kmh ESE 9.4 mph15.1 kmh 29.91 in1012.9 mb 0.00 in0.0 mm 0.00 in0.0 mm 0.00 in0.0 mm
11:43 AM 72.3°F22.4°C 53.2°F11.8°C 51% 6.0 mph ENE9.7 kmh ENE 9.8 mph15.8 kmh 29.91 in1012.9 mb 0.00 in0.0 mm 0.00 in0.0 mm 0.00 in0.0 mm
11:48 AM 73.7°F23.2°C 53.4°F11.9°C 49% 5.9 mph ENE9.5 kmh ENE 9.8 mph15.8 kmh 29.91 in1012.9 mb 0.00 in0.0 mm 0.00 in0.0 mm 0.00 in0.0 mm
11:53 AM 75.0°F23.9°C 54.0°F12.2°C 48% 5.7 mph ENE9.2 kmh ENE 9.4 mph15.1 kmh 29.88 in1011.9 mb 0.00 in0.0 mm 0.00 in0.0 mm 0.00 in0.0 mm
11:58 AM 75.0°F23.9°C 53.4°F11.9°C 47% 6.4 mph NE10.3 kmh NE 9.4 mph15.1 kmh 29.88 in1011.9 mb 0.00 in0.0 mm 0.00 in0.0 mm 0.00 in0.0 mm
12:03 PM 73.4°F23.0°C 51.3°F10.7°C 46% 6.3 mph NE10.1 kmh NE 10.8 mph17.4 kmh 29.88 in1011.9 mb 0.00 in0.0 mm 0.00 in0.0 mm 0.00 in0.0 mm
12:08 PM 71.2°F21.8°C 49.9°F9.9°C 47% 5.5 mph NW8.9 kmh NW 10.8 mph17.4 kmh 29.88 in1011.9 mb 0.00 in0.0 mm 0.00 in0.0 mm 0.00 in0.0 mm
12:13 PM 70.9°F21.6°C 50.2°F10.1°C 48% 5.7 mph ENE9.2 kmh ENE 9.4 mph15.1 kmh 29.88 in1011.9 mb 0.00 in0.0 mm 0.00 in0.0 mm 0.00 in0.0 mm
12:18 PM 71.4°F21.9°C 51.2°F10.7°C 49% 2.4 mph ENE3.9 kmh ENE 9.0 mph14.5 kmh 29.88 in1011.9 mb 0.00 in0.0 mm 0.00 in0.0 mm 0.00 in0.0 mm
12:23 PM 71.4°F21.9°C 51.2°F10.7°C 49% 2.1 mph ENE3.4 kmh ENE 6.2 mph10.0 kmh 29.88 in1011.9 mb 0.00 in0.0 mm 0.00 in0.0 mm 0.00 in0.0 mm
12:28 PM 70.1°F21.2°C 50.6°F10.3°C 50% 5.1 mph NNE8.2 kmh NNE 8.6 mph13.8 kmh 29.88 in1011.9 mb 0.00 in0.0 mm 0.00 in0.0 mm 0.00 in0.0 mm
12:33 PM 69.1°F20.6°C 50.2°F10.1°C 51% 2.3 mph 3.7 kmh 8.6 mph13.8 kmh 29.88 in1011.9 mb 0.00 in0.0 mm 0.00 in0.0 mm 0.00 in0.0 mm
12:38 PM 68.5°F20.3°C 50.2°F10.1°C 52% 4.1 mph NNE6.6 kmh NNE 7.2 mph11.6 kmh 29.88 in1011.9 mb 0.00 in0.0 mm 0.00 in0.0 mm 0.00 in0.0 mm
12:43 PM 68.5°F20.3°C 50.2°F10.1°C 52% 5.8 mph NNE9.3 kmh NNE 8.6 mph13.8 kmh 29.88 in1011.9 mb 0.00 in0.0 mm 0.00 in0.0 mm 0.00 in0.0 mm
12:48 PM 68.5°F20.3°C 50.7°F10.4°C 53% 4.1 mph NNE6.6 kmh NNE 8.6 mph13.8 kmh 29.88 in1011.9 mb 0.00 in0.0 mm 0.00 in0.0 mm 0.00 in0.0 mm
12:53 PM 68.2°F20.1°C 50.5°F10.3°C 53% 3.9 mph N6.3 kmh N 8.6 mph13.8 kmh 29.88 in1011.9 mb 0.00 in0.0 mm 0.00 in0.0 mm 0.00 in0.0 mm
12:58 PM 68.2°F20.1°C 51.0°F10.6°C 54% 2.2 mph NNE3.5 kmh NNE 6.8 mph10.9 kmh 29.88 in1011.9 mb 0.00 in0.0 mm 0.00 in0.0 mm 0.00 in0.0 mm
01:05 PM 67.4°F19.7°C 51.2°F10.7°C 56% 3.7 mph NNE6.0 kmh NNE 8.0 mph12.9 kmh 29.88 in1011.9 mb 0.00 in0.0 mm 0.00 in0.0 mm 0.00 in0.0 mm
01:10 PM 67.3°F19.6°C 52.1°F11.2°C 58% 2.7 mph NNE4.3 kmh NNE 8.0 mph12.9 kmh 29.88 in1011.9 mb 0.00 in0.0 mm 0.00 in0.0 mm 0.00 in0.0 mm
01:15 PM 66.9°F19.4°C 51.3°F10.7°C 57% 5.9 mph NNE9.5 kmh NNE 7.6 mph12.2 kmh 29.88 in1011.9 mb 0.00 in0.0 mm 0.00 in0.0 mm 0.00 in0.0 mm
01:20 PM 66.7°F19.3°C 51.6°F10.9°C 58% 3.2 mph N5.1 kmh N 7.6 mph12.2 kmh 29.85 in1010.8 mb 0.00 in0.0 mm 0.00 in0.0 mm 0.00 in0.0 mm
01:27 PM 66.5°F19.2°C 52.3°F11.3°C 60% 4.1 mph NNE6.6 kmh NNE 6.2 mph10.0 kmh 29.85 in1010.8 mb 0.00 in0.0 mm 0.00 in0.0 mm 0.00 in0.0 mm
01:32 PM 66.4°F19.1°C 52.2°F11.2°C 60% 7.0 mph NNE11.3 kmh NNE 8.6 mph13.8 kmh 29.85 in1010.8 mb 0.00 in0.0 mm 0.00 in0.0 mm 0.00 in0.0 mm
01:38 PM 66.4°F19.1°C 52.7°F11.5°C 61% 5.9 mph NNE9.5 kmh NNE 9.4 mph15.1 kmh 29.85 in1010.8 mb 0.00 in0.0 mm 0.00 in0.0 mm 0.00 in0.0 mm
01:43 PM 66.5°F19.2°C 53.2°F11.8°C 62% 6.0 mph NNE9.7 kmh NNE 9.4 mph15.1 kmh 29.85 in1010.8 mb 0.00 in0.0 mm 0.00 in0.0 mm 0.00 in0.0 mm
01:48 PM 66.9°F19.4°C 53.6°F12.0°C 62% 4.3 mph NE6.9 kmh NE 11.2 mph18.0 kmh 29.85 in1010.8 mb 0.00 in0.0 mm 0.00 in0.0 mm 0.00 in0.0 mm
01:53 PM 67.1°F19.5°C 53.8°F12.1°C 62% 5.2 mph NNE8.4 kmh NNE 11.2 mph18.0 kmh 29.85 in1010.8 mb 0.00 in0.0 mm 0.00 in0.0 mm 0.00 in0.0 mm
01:58 PM 67.3°F19.6°C 54.0°F12.2°C 62% 3.5 mph N5.6 kmh N 9.4 mph15.1 kmh 29.85 in1010.8 mb 0.00 in0.0 mm 0.00 in0.0 mm 0.00 in0.0 mm
02:03 PM 67.6°F19.8°C 54.3°F12.4°C 62% 4.3 mph NE6.9 kmh NE 9.4 mph15.1 kmh 29.85 in1010.8 mb 0.00 in0.0 mm 0.00 in0.0 mm 0.00 in0.0 mm
02:08 PM 68.0°F20.0°C 54.2°F12.3°C 61% 3.7 mph ENE6.0 kmh ENE 8.0 mph12.9 kmh 29.83 in1010.2 mb 0.00 in0.0 mm 0.00 in0.0 mm 0.00 in0.0 mm
02:13 PM 68.5°F20.3°C 55.1°F12.8°C 62% 4.4 mph NE7.1 kmh NE 8.0 mph12.9 kmh 29.83 in1010.2 mb 0.00 in0.0 mm 0.00 in0.0 mm 0.00 in0.0 mm
02:18 PM 69.4°F20.8°C 54.1°F12.3°C 58% 7.5 mph NNE12.1 kmh NNE 9.0 mph14.5 kmh 29.83 in1010.2 mb 0.00 in0.0 mm 0.00 in0.0 mm 0.00 in0.0 mm
02:23 PM 70.0°F21.1°C 54.2°F12.3°C 57% 7.0 mph NE11.3 kmh NE 9.0 mph14.5 kmh 29.88 in1011.9 mb 0.00 in0.0 mm 0.00 in0.0 mm 0.00 in0.0 mm
02:30 PM 70.5°F21.4°C 54.1°F12.3°C 56% 5.7 mph NNE9.2 kmh NNE 9.8 mph15.8 kmh 29.88 in1011.9 mb 0.00 in0.0 mm 0.00 in0.0 mm 0.00 in0.0 mm
02:35 PM 70.5°F21.4°C 54.1°F12.3°C 56% 5.8 mph NE9.3 kmh NE 9.8 mph15.8 kmh 29.85 in1010.8 mb 0.00 in0.0 mm 0.00 in0.0 mm 0.00 in0.0 mm
02:40 PM 71.0°F21.7°C 54.1°F12.3°C 55% 5.5 mph NNE8.9 kmh NNE 7.6 mph12.2 kmh 29.85 in1010.8 mb 0.00 in0.0 mm 0.00 in0.0 mm 0.00 in0.0 mm
02:45 PM 70.9°F21.6°C 54.0°F12.2°C 55% 4.3 mph NNE6.9 kmh NNE 7.2 mph11.6 kmh 29.85 in1010.8 mb 0.00 in0.0 mm 0.00 in0.0 mm 0.00 in0.0 mm
02:50 PM 71.8°F22.1°C 54.9°F12.7°C 55% 5.5 mph NE8.9 kmh NE 6.2 mph10.0 kmh 29.85 in1010.8 mb 0.00 in0.0 mm 0.00 in0.0 mm 0.00 in0.0 mm
02:55 PM 72.3°F22.4°C 55.3°F12.9°C 55% 4.1 mph N6.6 kmh N 11.2 mph18.0 kmh 29.85 in1010.8 mb 0.00 in0.0 mm 0.00 in0.0 mm 0.00 in0.0 mm
03:00 PM 72.7°F22.6°C 54.6°F12.6°C 53% 5.7 mph ENE9.2 kmh ENE 11.2 mph18.0 kmh 29.85 in1010.8 mb 0.00 in0.0 mm 0.00 in0.0 mm 0.00 in0.0 mm
03:05 PM 72.5°F22.5°C 54.5°F12.5°C 53% 5.7 mph NE9.2 kmh NE 11.2 mph18.0 kmh 29.85 in1010.8 mb 0.00 in0.0 mm 0.00 in0.0 mm 0.00 in0.0 mm
03:10 PM 72.5°F22.5°C 54.5°F12.5°C 53% 5.9 mph NE9.5 kmh NE 7.6 mph12.2 kmh 29.85 in1010.8 mb 0.00 in0.0 mm 0.00 in0.0 mm 0.00 in0.0 mm
03:15 PM 72.3°F22.4°C 53.7°F12.1°C 52% 3.4 mph N5.5 kmh N 8.0 mph12.9 kmh 29.85 in1010.8 mb 0.00 in0.0 mm 0.00 in0.0 mm 0.00 in0.0 mm
03:21 PM 71.9°F22.2°C 53.4°F11.9°C 52% 7.1 mph N11.4 kmh N 8.6 mph13.8 kmh 29.85 in1010.8 mb 0.00 in0.0 mm 0.00 in0.0 mm 0.00 in0.0 mm
03:26 PM 72.1°F22.3°C 54.6°F12.6°C 54% 3.6 mph E5.8 kmh E 8.6 mph13.8 kmh 29.85 in1010.8 mb 0.00 in0.0 mm 0.00 in0.0 mm 0.00 in0.0 mm
03:32 PM 71.6°F22.0°C 54.1°F12.3°C 54% 5.1 mph ENE8.2 kmh ENE 8.0 mph12.9 kmh 29.85 in1010.8 mb 0.00 in0.0 mm 0.00 in0.0 mm 0.00 in0.0 mm
03:37 PM 71.0°F21.7°C 53.6°F12.0°C 54% 5.6 mph NE9.0 kmh NE 8.0 mph12.9 kmh 29.85 in1010.8 mb 0.00 in0.0 mm 0.00 in0.0 mm 0.00 in0.0 mm
03:42 PM 71.0°F21.7°C 54.1°F12.3°C 55% 4.4 mph NE7.1 kmh NE 7.6 mph12.2 kmh 29.85 in1010.8 mb 0.00 in0.0 mm 0.00 in0.0 mm 0.00 in0.0 mm
03:47 PM 70.9°F21.6°C 54.0°F12.2°C 55% 4.9 mph ENE7.9 kmh ENE 6.2 mph10.0 kmh 29.85 in1010.8 mb 0.00 in0.0 mm 0.00 in0.0 mm 0.00 in0.0 mm
03:52 PM 70.7°F21.5°C 54.3°F12.4°C 56% 5.4 mph E8.7 kmh E 6.8 mph10.9 kmh 29.83 in1010.2 mb 0.00 in0.0 mm 0.00 in0.0 mm 0.00 in0.0 mm
03:57 PM 70.5°F21.4°C 54.6°F12.6°C 57% 4.1 mph NE6.6 kmh NE 6.8 mph10.9 kmh 29.83 in1010.2 mb 0.00 in0.0 mm 0.00 in0.0 mm 0.00 in0.0 mm
04:04 PM 69.8°F21.0°C 54.5°F12.5°C 58% 6.3 mph NE10.1 kmh NE 8.0 mph12.9 kmh 29.83 in1010.2 mb 0.00 in0.0 mm 0.00 in0.0 mm 0.00 in0.0 mm
04:09 PM 69.6°F20.9°C 54.3°F12.4°C 58% 4.2 mph NE6.8 kmh NE 8.0 mph12.9 kmh 29.83 in1010.2 mb 0.00 in0.0 mm 0.00 in0.0 mm 0.00 in0.0 mm
04:14 PM 69.6°F20.9°C 55.2°F12.9°C 60% 3.7 mph ESE6.0 kmh ESE 7.2 mph11.6 kmh 29.83 in1010.2 mb 0.00 in0.0 mm 0.00 in0.0 mm 0.00 in0.0 mm
04:19 PM 69.1°F20.6°C 55.7°F13.2°C 62% 1.9 mph ESE3.1 kmh ESE 7.2 mph11.6 kmh 29.83 in1010.2 mb 0.00 in0.0 mm 0.00 in0.0 mm 0.00 in0.0 mm
04:24 PM 68.9°F20.5°C 55.5°F13.1°C 62% Calm Calm 3.2 mph5.1 kmh 29.83 in1010.2 mb 0.00 in0.0 mm 0.00 in0.0 mm 0.00 in0.0 mm
04:29 PM 68.3°F20.2°C 55.8°F13.2°C 64% 1.8 mph ESE2.9 kmh ESE 2.6 mph4.2 kmh 29.83 in1010.2 mb 0.00 in0.0 mm 0.00 in0.0 mm 0.00 in0.0 mm
04:35 PM 67.8°F19.9°C 55.7°F13.2°C 65% 3.2 mph ESE5.1 kmh ESE 3.2 mph5.1 kmh 29.83 in1010.2 mb 0.00 in0.0 mm 0.00 in0.0 mm 0.00 in0.0 mm
04:40 PM 67.8°F19.9°C 55.7°F13.2°C 65% 4.8 mph ENE7.7 kmh ENE 5.8 mph9.3 kmh 29.83 in1010.2 mb 0.00 in0.0 mm 0.00 in0.0 mm 0.00 in0.0 mm
04:46 PM 66.4°F19.1°C 56.4°F13.6°C 70% 1.8 mph 2.9 kmh 5.8 mph9.3 kmh 29.83 in1010.2 mb 0.00 in0.0 mm 0.00 in0.0 mm 0.00 in0.0 mm
04:51 PM 65.6°F18.7°C 56.1°F13.4°C 71% Calm Calm 2.6 mph4.2 kmh 29.83 in1010.2 mb 0.00 in0.0 mm 0.00 in0.0 mm 0.00 in0.0 mm
04:56 PM 65.3°F18.5°C 56.5°F13.6°C 73% Calm Calm -- 29.83 in1010.2 mb 0.00 in0.0 mm 0.00 in0.0 mm 0.00 in0.0 mm
05:01 PM 64.9°F18.3°C 57.6°F14.2°C 77% 5.5 mph NNE8.9 kmh NNE 5.8 mph9.3 kmh 29.83 in1010.2 mb 0.00 in0.0 mm 0.00 in0.0 mm 0.00 in0.0 mm
05:06 PM 64.9°F18.3°C 58.6°F14.8°C 80% Calm Calm 5.8 mph9.3 kmh 29.83 in1010.2 mb 0.00 in0.0 mm 0.00 in0.0 mm 0.00 in0.0 mm
05:11 PM 64.9°F18.3°C 59.9°F15.5°C 84% 3.8 mph SSE6.1 kmh SSE 5.0 mph8.0 kmh 29.83 in1010.2 mb 0.00 in0.0 mm 0.00 in0.0 mm 0.00 in0.0 mm
05:16 PM 64.7°F18.2°C 60.1°F15.6°C 85% 1.8 mph SSE2.9 kmh SSE 5.0 mph8.0 kmh 29.83 in1010.2 mb 0.00 in0.0 mm 0.00 in0.0 mm 0.00 in0.0 mm
05:21 PM 64.7°F18.2°C 59.4°F15.2°C 83% 2.1 mph SSE3.4 kmh SSE 3.2 mph5.1 kmh 29.83 in1010.2 mb 0.00 in0.0 mm 0.00 in0.0 mm 0.00 in0.0 mm
05:26 PM 64.6°F18.1°C 60.0°F15.6°C 85% Calm Calm 2.6 mph4.2 kmh 29.83 in1010.2 mb 0.00 in0.0 mm 0.00 in0.0 mm 0.00 in0.0 mm
05:31 PM 64.7°F18.2°C 60.4°F15.8°C 86% 2.2 mph SSE3.5 kmh SSE 2.2 mph3.5 kmh 29.83 in1010.2 mb 0.00 in0.0 mm 0.00 in0.0 mm 0.00 in0.0 mm
05:36 PM 64.6°F18.1°C 60.9°F16.1°C 88% Calm Calm 2.2 mph3.5 kmh 29.83 in1010.2 mb 0.00 in0.0 mm 0.00 in0.0 mm 0.00 in0.0 mm
05:41 PM 64.4°F18.0°C 60.4°F15.8°C 87% 4.3 mph NNE6.9 kmh NNE 5.0 mph8.0 kmh 29.83 in1010.2 mb 0.00 in0.0 mm 0.00 in0.0 mm 0.00 in0.0 mm
05:47 PM 64.2°F17.9°C 60.8°F16.0°C 89% 2.7 mph NNE4.3 kmh NNE 5.4 mph8.7 kmh 29.83 in1010.2 mb 0.00 in0.0 mm 0.00 in0.0 mm 0.00 in0.0 mm
05:52 PM 63.7°F17.6°C 60.7°F15.9°C 90% 3.3 mph NNE5.3 kmh NNE 5.4 mph8.7 kmh 29.83 in1010.2 mb 0.00 in0.0 mm 0.00 in0.0 mm 0.00 in0.0 mm
05:57 PM 63.7°F17.6°C 60.3°F15.7°C 89% 2.0 mph NNE3.2 kmh NNE 4.0 mph6.4 kmh 29.83 in1010.2 mb 0.00 in0.0 mm 0.00 in0.0 mm 0.00 in0.0 mm
06:02 PM 63.3°F17.4°C 60.0°F15.6°C 89% Calm Calm 3.2 mph5.1 kmh 29.83 in1010.2 mb 0.00 in0.0 mm 0.00 in0.0 mm 0.00 in0.0 mm
06:07 PM 63.1°F17.3°C 59.8°F15.4°C 89% 2.2 mph NNW3.5 kmh NNW 4.0 mph6.4 kmh 29.85 in1010.8 mb 0.00 in0.0 mm 0.00 in0.0 mm 0.00 in0.0 mm
06:12 PM 62.8°F17.1°C 58.8°F14.9°C 87% 1.9 mph NNW3.1 kmh NNW 2.6 mph4.2 kmh 29.85 in1010.8 mb 0.00 in0.0 mm 0.00 in0.0 mm 0.00 in0.0 mm
06:17 PM 62.4°F16.9°C 58.8°F14.9°C 88% 2.4 mph NW3.9 kmh NW 3.2 mph5.1 kmh 29.85 in1010.8 mb 0.00 in0.0 mm 0.00 in0.0 mm 0.00 in0.0 mm
06:22 PM 62.0°F16.7°C 58.7°F14.8°C 89% 2.0 mph NW3.2 kmh NW 3.2 mph5.1 kmh 29.85 in1010.8 mb 0.00 in0.0 mm 0.00 in0.0 mm 0.00 in0.0 mm
06:27 PM 61.7°F16.5°C 59.0°F15.0°C 91% 2.5 mph NW4.0 kmh NW 4.0 mph6.4 kmh 29.85 in1010.8 mb 0.00 in0.0 mm 0.00 in0.0 mm 0.00 in0.0 mm
06:32 PM 61.3°F16.3°C 59.2°F15.1°C 93% 2.6 mph NW4.2 kmh NW 4.0 mph6.4 kmh 29.85 in1010.8 mb 0.00 in0.0 mm 0.00 in0.0 mm 0.00 in0.0 mm
06:37 PM 60.8°F16.0°C 58.4°F14.7°C 92% 2.5 mph NW4.0 kmh NW 4.0 mph6.4 kmh 29.85 in1010.8 mb 0.00 in0.0 mm 0.00 in0.0 mm 0.00 in0.0 mm
06:42 PM 60.6°F15.9°C 58.8°F14.9°C 94% 2.5 mph NW4.0 kmh NW 4.0 mph6.4 kmh 29.85 in1010.8 mb 0.00 in0.0 mm 0.00 in0.0 mm 0.00 in0.0 mm
06:47 PM 60.2°F15.7°C 58.4°F14.7°C 94% 3.3 mph NNW5.3 kmh NNW 4.0 mph6.4 kmh 29.85 in1010.8 mb 0.00 in0.0 mm 0.00 in0.0 mm 0.00 in0.0 mm
06:52 PM 59.9°F15.5°C 58.4°F14.7°C 95% 4.6 mph N7.4 kmh N 8.0 mph12.9 kmh 29.85 in1010.8 mb 0.00 in0.0 mm 0.00 in0.0 mm 0.00 in0.0 mm
06:57 PM 59.3°F15.2°C 58.0°F14.4°C 96% 2.6 mph NNW4.2 kmh NNW 8.0 mph12.9 kmh 29.85 in1010.8 mb 0.00 in0.0 mm 0.00 in0.0 mm 0.00 in0.0 mm
07:02 PM 59.3°F15.2°C 58.3°F14.6°C 97% 3.1 mph S5.0 kmh S 7.6 mph12.2 kmh 29.85 in1010.8 mb 0.00 in0.0 mm 0.00 in0.0 mm 0.00 in0.0 mm
07:08 PM 58.9°F14.9°C 57.9°F14.4°C 97% 3.0 mph NW4.8 kmh NW 4.4 mph7.1 kmh 29.85 in1010.8 mb 0.00 in0.0 mm 0.00 in0.0 mm 0.00 in0.0 mm
07:13 PM 58.7°F14.8°C 58.0°F14.4°C 98% 3.4 mph WNW5.5 kmh WNW 5.0 mph8.0 kmh 29.85 in1010.8 mb 0.04 in1.0 mm 0.48 in12.2 mm 0.04 in1.0 mm
07:18 PM 58.5°F14.7°C 57.8°F14.3°C 98% 3.8 mph NNE6.1 kmh NNE 5.0 mph8.0 kmh 29.85 in1010.8 mb 0.04 in1.0 mm 0.00 in0.0 mm 0.04 in1.0 mm
07:23 PM 58.4°F14.7°C 57.7°F14.3°C 98% 2.4 mph W3.9 kmh W 5.0 mph8.0 kmh 29.85 in1010.8 mb 0.08 in2.0 mm 0.48 in12.2 mm 0.08 in2.0 mm
07:28 PM 58.4°F14.7°C 57.7°F14.3°C 98% 1.8 mph NE2.9 kmh NE 4.4 mph7.1 kmh 29.85 in1010.8 mb 0.08 in2.0 mm 0.00 in0.0 mm 0.08 in2.0 mm
07:33 PM 58.4°F14.7°C 57.7°F14.3°C 98% 2.1 mph SSW3.4 kmh SSW 4.4 mph7.1 kmh 29.85 in1010.8 mb 0.08 in2.0 mm 0.00 in0.0 mm 0.08 in2.0 mm
07:38 PM 58.2°F14.6°C 57.5°F14.2°C 98% 2.8 mph SSE4.5 kmh SSE 4.4 mph7.1 kmh 29.85 in1010.8 mb 0.08 in2.0 mm 0.00 in0.0 mm 0.08 in2.0 mm
07:43 PM 58.4°F14.7°C 57.7°F14.3°C 98% 3.5 mph W5.6 kmh W 5.4 mph8.7 kmh 29.85 in1010.8 mb 0.08 in2.0 mm 0.00 in0.0 mm 0.08 in2.0 mm
07:48 PM 58.0°F14.4°C 57.3°F14.1°C 98% 2.2 mph NNW3.5 kmh NNW 5.4 mph8.7 kmh 29.85 in1010.8 mb 0.12 in3.0 mm 0.48 in12.2 mm 0.12 in3.0 mm
07:53 PM 57.8°F14.3°C 57.1°F13.9°C 98% Calm Calm 5.0 mph8.0 kmh 29.85 in1010.8 mb 0.00 in0.0 mm 0.00 in0.0 mm 0.12 in3.0 mm
07:58 PM 57.8°F14.3°C 57.1°F13.9°C 98% 1.8 mph E2.9 kmh E 5.0 mph8.0 kmh 29.85 in1010.8 mb 0.00 in0.0 mm 0.00 in0.0 mm 0.12 in3.0 mm
08:03 PM 57.8°F14.3°C 57.1°F13.9°C 98% Calm Calm 4.0 mph6.4 kmh 29.85 in1010.8 mb 0.00 in0.0 mm 0.00 in0.0 mm 0.12 in3.0 mm
08:09 PM 58.0°F14.4°C 57.3°F14.1°C 98% 2.6 mph E4.2 kmh E 4.0 mph6.4 kmh 29.85 in1010.8 mb 0.00 in0.0 mm 0.00 in0.0 mm 0.12 in3.0 mm
08:14 PM 58.0°F14.4°C 57.3°F14.1°C 98% 2.0 mph E3.2 kmh E 4.0 mph6.4 kmh 29.85 in1010.8 mb 0.00 in0.0 mm 0.00 in0.0 mm 0.12 in3.0 mm
08:19 PM 57.8°F14.3°C 57.1°F13.9°C 98% 2.6 mph E4.2 kmh E 4.4 mph7.1 kmh 29.85 in1010.8 mb 0.04 in1.0 mm 0.48 in12.2 mm 0.16 in4.1 mm
08:24 PM 58.0°F14.4°C 57.3°F14.1°C 98% Calm Calm 4.4 mph7.1 kmh 29.85 in1010.8 mb 0.04 in1.0 mm 0.00 in0.0 mm 0.16 in4.1 mm
08:32 PM 57.8°F14.3°C 57.1°F13.9°C 98% 3.2 mph ENE5.1 kmh ENE 5.0 mph8.0 kmh 29.85 in1010.8 mb 0.04 in1.0 mm 0.00 in0.0 mm 0.16 in4.1 mm
08:37 PM 57.8°F14.3°C 57.1°F13.9°C 98% Calm Calm 5.0 mph8.0 kmh 29.85 in1010.8 mb 0.08 in2.0 mm 0.48 in12.2 mm 0.20 in5.1 mm
08:43 PM 57.8°F14.3°C 57.1°F13.9°C 98% Calm Calm -- 29.85 in1010.8 mb 0.08 in2.0 mm 0.00 in0.0 mm 0.20 in5.1 mm
08:48 PM 57.6°F14.2°C 56.9°F13.8°C 98% Calm Calm -- 29.85 in1010.8 mb 0.08 in2.0 mm 0.00 in0.0 mm 0.20 in5.1 mm
08:53 PM 57.6°F14.2°C 56.9°F13.8°C 98% Calm Calm -- 29.85 in1010.8 mb 0.00 in0.0 mm 0.00 in0.0 mm 0.20 in5.1 mm
08:58 PM 57.5°F14.2°C 56.8°F13.8°C 98% Calm Calm -- 29.85 in1010.8 mb 0.00 in0.0 mm 0.00 in0.0 mm 0.20 in5.1 mm
09:07 PM 57.5°F14.2°C 56.8°F13.8°C 98% 2.7 mph ESE4.3 kmh ESE 4.0 mph6.4 kmh 29.83 in1010.2 mb 0.00 in0.0 mm 0.00 in0.0 mm 0.20 in5.1 mm
09:12 PM 57.5°F14.2°C 56.8°F13.8°C 98% Calm Calm 4.0 mph6.4 kmh 29.83 in1010.2 mb 0.00 in0.0 mm 0.00 in0.0 mm 0.20 in5.1 mm
09:17 PM 57.5°F14.2°C 56.8°F13.8°C 98% 4.0 mph ESE6.4 kmh ESE 4.0 mph6.4 kmh 29.83 in1010.2 mb 0.04 in1.0 mm 0.48 in12.2 mm 0.25 in6.4 mm
09:22 PM 57.5°F14.2°C 56.8°F13.8°C 98% Calm Calm 4.0 mph6.4 kmh 29.83 in1010.2 mb 0.04 in1.0 mm 0.00 in0.0 mm 0.25 in6.4 mm
09:29 PM 57.3°F14.1°C 56.6°F13.7°C 98% Calm Calm -- 29.83 in1010.2 mb 0.04 in1.0 mm 0.00 in0.0 mm 0.25 in6.4 mm
09:34 PM 57.3°F14.1°C 56.6°F13.7°C 98% Calm Calm -- 29.83 in1010.2 mb 0.04 in1.0 mm 0.00 in0.0 mm 0.25 in6.4 mm
09:40 PM 57.3°F14.1°C 56.6°F13.7°C 98% Calm Calm -- 29.85 in1010.8 mb 0.04 in1.0 mm 0.00 in0.0 mm 0.25 in6.4 mm
09:45 PM 57.1°F13.9°C 56.4°F13.6°C 98% 4.0 mph SSE6.4 kmh SSE 4.0 mph6.4 kmh 29.85 in1010.8 mb 0.04 in1.0 mm 0.00 in0.0 mm 0.25 in6.4 mm
09:50 PM 57.1°F13.9°C 56.4°F13.6°C 98% 5.0 mph SE8.0 kmh SE 6.2 mph10.0 kmh 29.80 in1009.1 mb 0.00 in0.0 mm 0.00 in0.0 mm 0.25 in6.4 mm
09:55 PM 56.9°F13.8°C 56.2°F13.4°C 98% 5.0 mph SE8.0 kmh SE 6.2 mph10.0 kmh 29.80 in1009.1 mb 0.00 in0.0 mm 0.00 in0.0 mm 0.25 in6.4 mm
10:00 PM 56.9°F13.8°C 56.2°F13.4°C 98% 2.3 mph SSW3.7 kmh SSW 5.4 mph8.7 kmh 29.80 in1009.1 mb 0.00 in0.0 mm 0.00 in0.0 mm 0.25 in6.4 mm
10:05 PM 56.7°F13.7°C 56.0°F13.3°C 98% Calm Calm 5.4 mph8.7 kmh 29.80 in1009.1 mb 0.00 in0.0 mm 0.00 in0.0 mm 0.25 in6.4 mm
10:11 PM 56.6°F13.7°C 55.9°F13.3°C 98% Calm Calm 2.2 mph3.5 kmh 29.80 in1009.1 mb 0.00 in0.0 mm 0.00 in0.0 mm 0.25 in6.4 mm
10:16 PM 56.6°F13.7°C 55.9°F13.3°C 98% 2.3 mph SSE3.7 kmh SSE 4.0 mph6.4 kmh 29.80 in1009.1 mb 0.00 in0.0 mm 0.00 in0.0 mm 0.25 in6.4 mm
10:21 PM 56.6°F13.7°C 55.9°F13.3°C 98% Calm Calm 4.0 mph6.4 kmh 29.80 in1009.1 mb 0.00 in0.0 mm 0.00 in0.0 mm 0.25 in6.4 mm
10:26 PM 56.4°F13.6°C 55.7°F13.2°C 98% Calm Calm 2.2 mph3.5 kmh 29.80 in1009.1 mb 0.00 in0.0 mm 0.00 in0.0 mm 0.25 in6.4 mm
10:31 PM 56.4°F13.6°C 55.7°F13.2°C 98% Calm Calm -- 29.80 in1009.1 mb 0.00 in0.0 mm 0.00 in0.0 mm 0.25 in6.4 mm
10:36 PM 56.2°F13.4°C 55.5°F13.1°C 98% 2.0 mph SSE3.2 kmh SSE 2.2 mph3.5 kmh 29.80 in1009.1 mb 0.00 in0.0 mm 0.00 in0.0 mm 0.25 in6.4 mm
10:41 PM 56.2°F13.4°C 55.5°F13.1°C 98% 3.1 mph SSE5.0 kmh SSE 4.4 mph7.1 kmh 29.80 in1009.1 mb 0.00 in0.0 mm 0.00 in0.0 mm 0.25 in6.4 mm
10:46 PM 56.2°F13.4°C 55.5°F13.1°C 98% Calm Calm 4.4 mph7.1 kmh 29.80 in1009.1 mb 0.00 in0.0 mm 0.00 in0.0 mm 0.25 in6.4 mm
10:51 PM 56.2°F13.4°C 55.5°F13.1°C 98% Calm Calm 3.2 mph5.1 kmh 29.83 in1010.2 mb 0.00 in0.0 mm 0.00 in0.0 mm 0.25 in6.4 mm
10:56 PM 56.0°F13.3°C 55.3°F12.9°C 98% Calm Calm -- 29.83 in1010.2 mb 0.00 in0.0 mm 0.00 in0.0 mm 0.25 in6.4 mm
11:01 PM 56.0°F13.3°C 55.3°F12.9°C 98% 1.8 mph SSE2.9 kmh SSE 1.8 mph2.9 kmh 29.83 in1010.2 mb 0.00 in0.0 mm 0.00 in0.0 mm 0.25 in6.4 mm
11:06 PM 56.0°F13.3°C 55.3°F12.9°C 98% 1.8 mph SSE2.9 kmh SSE 1.8 mph2.9 kmh 29.83 in1010.2 mb 0.00 in0.0 mm 0.00 in0.0 mm 0.25 in6.4 mm
11:11 PM 55.8°F13.2°C 55.1°F12.8°C 98% 4.7 mph ENE7.6 kmh ENE 5.0 mph8.0 kmh 29.83 in1010.2 mb 0.00 in0.0 mm 0.00 in0.0 mm 0.25 in6.4 mm
11:16 PM 55.8°F13.2°C 55.1°F12.8°C 98% 3.2 mph ENE5.1 kmh ENE 5.0 mph8.0 kmh 29.83 in1010.2 mb 0.00 in0.0 mm 0.00 in0.0 mm 0.25 in6.4 mm
11:21 PM 55.8°F13.2°C 55.1°F12.8°C 98% Calm Calm 5.0 mph8.0 kmh 29.85 in1010.8 mb 0.00 in0.0 mm 0.00 in0.0 mm 0.25 in6.4 mm
11:26 PM 55.8°F13.2°C 55.1°F12.8°C 98% Calm Calm -- 29.85 in1010.8 mb 0.00 in0.0 mm 0.00 in0.0 mm 0.25 in6.4 mm
11:33 PM 55.8°F13.2°C 55.1°F12.8°C 98% Calm Calm -- 29.85 in1010.8 mb 0.00 in0.0 mm 0.00 in0.0 mm 0.25 in6.4 mm
11:38 PM 55.8°F13.2°C 55.1°F12.8°C 98% Calm Calm -- 29.83 in1010.2 mb 0.00 in0.0 mm 0.00 in0.0 mm 0.25 in6.4 mm
11:43 PM 55.8°F13.2°C 55.1°F12.8°C 98% Calm Calm -- 29.83 in1010.2 mb 0.00 in0.0 mm 0.00 in0.0 mm 0.25 in6.4 mm
11:48 PM 55.8°F13.2°C 55.1°F12.8°C 98% Calm Calm -- 29.83 in1010.2 mb 0.00 in0.0 mm 0.00 in0.0 mm 0.25 in6.4 mm
11:53 PM 55.8°F13.2°C 55.1°F12.8°C 98% Calm Calm -- 29.80 in1009.1 mb 0.00 in0.0 mm 0.00 in0.0 mm 0.25 in6.4 mm
11:58 PM 55.8°F13.2°C 55.1°F12.8°C 98% Calm Calm -- 29.80 in1009.1 mb 0.00 in0.0 mm 0.00 in0.0 mm 0.25 in6.4 mm